createdAt,value
2017-03-31T00:00:37.350Z,1008.8
2017-03-31T00:01:17.818Z,1008.79
2017-03-31T00:01:58.298Z,1008.79
2017-03-31T00:02:38.749Z,1008.79
2017-03-31T00:03:19.191Z,1008.79
2017-03-31T00:03:59.659Z,1008.8
2017-03-31T00:04:40.115Z,1008.78
2017-03-31T00:05:20.561Z,1008.79
2017-03-31T00:07:48.470Z,1008.7
2017-03-31T00:08:28.926Z,1008.71
2017-03-31T00:09:09.404Z,1008.73
2017-03-31T00:09:49.869Z,1008.72
2017-03-31T00:10:30.417Z,1008.72
2017-03-31T00:11:10.890Z,1008.73
2017-03-31T00:11:51.344Z,1008.73
2017-03-31T00:12:31.813Z,1008.67
2017-03-31T00:14:29.483Z,1008.71
2017-03-31T00:15:09.937Z,1008.7
2017-03-31T00:17:37.845Z,1008.69
2017-03-31T00:18:18.295Z,1008.66
2017-03-31T00:18:58.777Z,1008.69
2017-03-31T00:19:39.232Z,1008.66
2017-03-31T00:20:19.693Z,1008.66
2017-03-31T00:21:00.144Z,1008.64
2017-03-31T00:21:40.641Z,1008.61
2017-03-31T00:22:21.117Z,1008.64
2017-03-31T00:23:01.557Z,1008.63
2017-03-31T00:23:42.017Z,1008.6
2017-03-31T00:24:22.434Z,1008.59
2017-03-31T00:25:02.912Z,1008.59
2017-03-31T00:25:43.388Z,1008.6
2017-03-31T00:26:23.853Z,1008.6
2017-03-31T00:27:04.333Z,1008.58
2017-03-31T00:27:44.808Z,1008.59
2017-03-31T00:28:25.242Z,1008.6
2017-03-31T00:29:05.690Z,1008.59
2017-03-31T00:29:46.130Z,1008.57
2017-03-31T00:30:26.635Z,1008.56
2017-03-31T00:31:07.066Z,1008.59
2017-03-31T00:31:47.541Z,1008.58
2017-03-31T00:32:28.019Z,1008.53
2017-03-31T00:33:08.513Z,1008.56
2017-03-31T00:33:48.932Z,1008.54
2017-03-31T00:34:29.408Z,1008.53
2017-03-31T00:35:09.838Z,1008.52
2017-03-31T00:37:27.727Z,1008.5
2017-03-31T00:38:08.175Z,1008.45
2017-03-31T00:38:48.631Z,1008.46
2017-03-31T00:41:01.330Z,1008.41
2017-03-31T00:41:41.736Z,1008.4
2017-03-31T00:42:22.194Z,1008.39
2017-03-31T00:43:02.631Z,1008.39
2017-03-31T00:43:43.093Z,1008.36
2017-03-31T00:44:23.541Z,1008.36
2017-03-31T00:45:04.004Z,1008.36
2017-03-31T00:47:31.917Z,1008.29
2017-03-31T00:48:12.373Z,1008.34
2017-03-31T00:48:52.841Z,1008.32
2017-03-31T00:49:33.308Z,1008.3
2017-03-31T00:50:13.756Z,1008.32
2017-03-31T00:50:54.200Z,1008.32
2017-03-31T00:51:34.669Z,1008.28
2017-03-31T00:53:52.526Z,1008.25
2017-03-31T00:54:32.969Z,1008.24
2017-03-31T00:55:13.446Z,1008.22
2017-03-31T00:55:53.941Z,1008.24
2017-03-31T00:56:34.433Z,1008.22
2017-03-31T00:57:14.887Z,1008.2
2017-03-31T00:57:55.352Z,1008.16
2017-03-31T00:58:35.814Z,1008.18
2017-03-31T00:59:16.306Z,1008.16
2017-03-31T00:59:56.783Z,1008.16
2017-03-31T01:00:37.288Z,1008.14
2017-03-31T01:03:05.222Z,1008.16
2017-03-31T01:03:45.667Z,1008.14
2017-03-31T01:05:38.357Z,1008.07
2017-03-31T01:06:18.780Z,1008.12
2017-03-31T01:06:59.245Z,1008.1
2017-03-31T01:07:39.701Z,1008.11
2017-03-31T01:08:20.133Z,1008.13
2017-03-31T01:09:00.611Z,1008.12
2017-03-31T01:09:41.125Z,1008.09
2017-03-31T01:10:21.568Z,1008.1
2017-03-31T01:11:02.007Z,1008.11
2017-03-31T01:11:42.456Z,1008.08
2017-03-31T01:12:22.923Z,1008.04
2017-03-31T01:13:03.381Z,1008.07
2017-03-31T01:14:55.927Z,1008.1
2017-03-31T01:15:36.365Z,1008.08
2017-03-31T01:16:16.827Z,1008.1
2017-03-31T01:16:57.319Z,1008.08
2017-03-31T01:17:37.779Z,1007.99
2017-03-31T01:18:18.232Z,1008.04
2017-03-31T01:18:58.630Z,1008.01
2017-03-31T01:19:39.076Z,1008
2017-03-31T01:21:36.723Z,1008.01
2017-03-31T01:22:17.177Z,1008.03
2017-03-31T01:22:57.672Z,1008.02
2017-03-31T01:23:38.139Z,1008.02
2017-03-31T01:24:18.624Z,1008.01
2017-03-31T01:24:59.119Z,1008.05
2017-03-31T01:25:39.591Z,1008.02
2017-03-31T01:26:20.107Z,1008.03
2017-03-31T01:28:37.922Z,1008
2017-03-31T01:29:18.394Z,1008.02
2017-03-31T01:29:58.853Z,1008.02
2017-03-31T01:30:39.312Z,1008.03
2017-03-31T01:32:37.021Z,1008.03
2017-03-31T01:33:17.461Z,1008.07
2017-03-31T01:33:57.908Z,1008.04
2017-03-31T01:36:15.798Z,1008.05
2017-03-31T01:36:56.240Z,1008.06
2017-03-31T01:37:36.696Z,1008.06
2017-03-31T01:38:17.134Z,1008.05
2017-03-31T01:38:57.672Z,1008.04
2017-03-31T01:39:38.111Z,1008.05
2017-03-31T01:40:18.535Z,1008.04
2017-03-31T01:42:31.327Z,1008.04
2017-03-31T01:43:11.768Z,1008.06
2017-03-31T01:43:52.231Z,1008.01
2017-03-31T01:45:49.861Z,1008.03
2017-03-31T01:46:30.318Z,1008.02
2017-03-31T01:47:10.767Z,1008.02
2017-03-31T01:47:51.180Z,1008.03
2017-03-31T01:48:31.638Z,1007.99
2017-03-31T01:49:12.086Z,1007.99
2017-03-31T01:49:52.575Z,1007.99
2017-03-31T01:50:33.019Z,1008.02
2017-03-31T01:51:13.422Z,1008.01
2017-03-31T01:51:53.897Z,1007.99
2017-03-31T01:52:34.330Z,1007.99
2017-03-31T01:53:14.774Z,1008.02
2017-03-31T01:53:55.213Z,1008
2017-03-31T01:54:35.644Z,1008.01
2017-03-31T01:55:16.791Z,1007.92
2017-03-31T01:55:57.241Z,1007.98
2017-03-31T01:56:37.709Z,1007.97
2017-03-31T01:57:18.153Z,1007.98
2017-03-31T01:57:58.595Z,1007.96
2017-03-31T01:58:39.046Z,1007.93
2017-03-31T01:59:19.485Z,1007.95
2017-03-31T01:59:59.977Z,1007.94
2017-03-31T02:00:40.439Z,1007.9
2017-03-31T02:01:20.932Z,1007.93
2017-03-31T02:03:18.589Z,1007.87
2017-03-31T02:03:59.050Z,1007.83
2017-03-31T02:04:39.504Z,1007.84
2017-03-31T02:05:19.940Z,1007.82
2017-03-31T02:06:00.364Z,1007.83
2017-03-31T02:08:28.326Z,1007.82
2017-03-31T02:09:08.801Z,1007.78
2017-03-31T02:09:49.242Z,1007.79
2017-03-31T02:10:29.681Z,1007.78
2017-03-31T02:11:10.160Z,1007.81
2017-03-31T02:11:50.614Z,1007.78
2017-03-31T02:12:31.100Z,1007.8
2017-03-31T02:13:11.583Z,1007.81
2017-03-31T02:13:51.989Z,1007.82
2017-03-31T02:14:32.501Z,1007.82
2017-03-31T02:16:30.094Z,1007.79
2017-03-31T02:17:10.556Z,1007.8
2017-03-31T02:17:51.036Z,1007.79
2017-03-31T02:20:03.712Z,1007.8
2017-03-31T02:20:44.173Z,1007.78
2017-03-31T02:21:24.624Z,1007.81
2017-03-31T02:22:05.158Z,1007.78
2017-03-31T02:24:17.850Z,1007.8
2017-03-31T02:24:58.310Z,1007.79
2017-03-31T02:25:38.831Z,1007.77
2017-03-31T02:26:19.301Z,1007.77
2017-03-31T02:26:59.774Z,1007.81
2017-03-31T02:27:40.262Z,1007.78
2017-03-31T02:28:20.715Z,1007.75
2017-03-31T02:29:01.127Z,1007.74
2017-03-31T02:29:41.576Z,1007.75
2017-03-31T02:30:22.048Z,1007.75
2017-03-31T02:31:02.543Z,1007.76
2017-03-31T02:31:42.948Z,1007.77
2017-03-31T02:32:23.419Z,1007.74
2017-03-31T02:33:03.933Z,1007.77
2017-03-31T02:33:44.391Z,1007.75
2017-03-31T02:36:02.233Z,1007.74
2017-03-31T02:36:42.657Z,1007.8
2017-03-31T02:37:23.084Z,1007.79
2017-03-31T02:38:03.520Z,1007.75
2017-03-31T02:38:44.023Z,1007.74
2017-03-31T02:39:24.413Z,1007.74
2017-03-31T02:41:16.988Z,1007.71
2017-03-31T02:41:58.173Z,1007.7
2017-03-31T02:43:55.773Z,1007.7
2017-03-31T02:44:36.218Z,1007.72
2017-03-31T02:46:48.975Z,1007.67
2017-03-31T02:47:29.385Z,1007.67
2017-03-31T02:49:47.340Z,1007.66
2017-03-31T02:50:27.789Z,1007.63
2017-03-31T02:51:08.271Z,1007.66
2017-03-31T02:51:48.735Z,1007.63
2017-03-31T02:52:29.190Z,1007.65
2017-03-31T02:53:09.647Z,1007.6
2017-03-31T02:53:50.084Z,1007.61
2017-03-31T02:54:30.578Z,1007.58
2017-03-31T02:55:11.068Z,1007.6
2017-03-31T02:55:51.477Z,1007.6
2017-03-31T02:56:31.918Z,1007.56
2017-03-31T02:57:12.386Z,1007.57
2017-03-31T02:57:52.848Z,1007.56
2017-03-31T02:58:33.372Z,1007.58
2017-03-31T02:59:13.865Z,1007.55
2017-03-31T02:59:54.580Z,1007.55
2017-03-31T03:00:34.750Z,1007.55
2017-03-31T03:01:15.228Z,1007.56
2017-03-31T03:01:55.671Z,1007.59
2017-03-31T03:02:36.127Z,1007.57
2017-03-31T03:03:16.603Z,1007.58
2017-03-31T03:03:57.058Z,1007.58
2017-03-31T03:04:37.491Z,1007.57
2017-03-31T03:05:17.990Z,1007.59
2017-03-31T03:05:58.449Z,1007.57
2017-03-31T03:06:38.992Z,1007.54
2017-03-31T03:07:19.452Z,1007.56
2017-03-31T03:07:59.925Z,1007.56
2017-03-31T03:08:40.407Z,1007.57
2017-03-31T03:09:20.909Z,1007.58
2017-03-31T03:10:01.393Z,1007.58
2017-03-31T03:10:41.897Z,1007.58
2017-03-31T03:11:22.323Z,1007.57
2017-03-31T03:12:02.761Z,1007.54
2017-03-31T03:14:30.676Z,1007.55
2017-03-31T03:15:11.129Z,1007.55
2017-03-31T03:15:51.591Z,1007.52
2017-03-31T03:16:32.036Z,1007.52
2017-03-31T03:17:12.502Z,1007.52
2017-03-31T03:17:52.991Z,1007.54
2017-03-31T03:18:33.434Z,1007.51
2017-03-31T03:19:13.918Z,1007.52
2017-03-31T03:19:54.366Z,1007.51
2017-03-31T03:20:34.767Z,1007.52
2017-03-31T03:22:47.503Z,1007.5
2017-03-31T03:23:27.892Z,1007.47
2017-03-31T03:24:08.384Z,1007.44
2017-03-31T03:24:48.873Z,1007.48
2017-03-31T03:25:29.343Z,1007.45
2017-03-31T03:26:09.824Z,1007.48
2017-03-31T03:26:50.283Z,1007.46
2017-03-31T03:27:30.719Z,1007.45
2017-03-31T03:28:11.427Z,1007.43
2017-03-31T03:28:51.929Z,1007.44
2017-03-31T03:29:32.383Z,1007.47
2017-03-31T03:30:12.834Z,1007.44
2017-03-31T03:30:53.250Z,1007.48
2017-03-31T03:31:33.691Z,1007.42
2017-03-31T03:32:14.174Z,1007.41
2017-03-31T03:32:54.629Z,1007.38
2017-03-31T03:33:35.068Z,1007.41
2017-03-31T03:34:15.515Z,1007.44
2017-03-31T03:34:55.959Z,1007.42
2017-03-31T03:35:36.431Z,1007.41
2017-03-31T03:38:04.409Z,1007.36
2017-03-31T03:38:44.817Z,1007.36
2017-03-31T03:39:25.243Z,1007.36
2017-03-31T03:40:05.720Z,1007.36
2017-03-31T03:40:46.251Z,1007.34
2017-03-31T03:41:26.712Z,1007.36
2017-03-31T03:42:07.115Z,1007.34
2017-03-31T03:42:47.605Z,1007.32
2017-03-31T03:43:28.030Z,1007.31
2017-03-31T03:44:08.504Z,1007.32
2017-03-31T03:44:48.999Z,1007.33
2017-03-31T03:45:29.443Z,1007.34
2017-03-31T03:46:09.927Z,1007.33
2017-03-31T03:46:50.385Z,1007.33
2017-03-31T03:47:30.850Z,1007.34
2017-03-31T03:48:11.330Z,1007.36
2017-03-31T03:48:51.819Z,1007.36
2017-03-31T03:49:32.382Z,1007.32
2017-03-31T03:50:12.764Z,1007.38
2017-03-31T03:50:53.241Z,1007.36
2017-03-31T03:51:33.674Z,1007.34
2017-03-31T03:52:14.137Z,1007.35
2017-03-31T03:52:54.599Z,1007.36
2017-03-31T03:53:35.062Z,1007.36
2017-03-31T03:55:27.628Z,1007.36
2017-03-31T03:56:08.108Z,1007.36
2017-03-31T03:56:48.595Z,1007.37
2017-03-31T03:57:29.012Z,1007.34
2017-03-31T03:59:21.613Z,1007.34
2017-03-31T04:00:02.058Z,1007.31
2017-03-31T04:00:42.508Z,1007.35
2017-03-31T04:01:22.972Z,1007.36
2017-03-31T04:02:03.409Z,1007.36
2017-03-31T04:02:43.881Z,1007.35
2017-03-31T04:03:24.355Z,1007.38
2017-03-31T04:04:04.810Z,1007.4
2017-03-31T04:04:45.241Z,1007.4
2017-03-31T04:07:13.201Z,1007.44
2017-03-31T04:09:31.033Z,1007.45
2017-03-31T04:10:11.447Z,1007.44
2017-03-31T04:12:39.437Z,1007.43
2017-03-31T04:13:19.845Z,1007.45
2017-03-31T04:14:00.257Z,1007.44
2017-03-31T04:14:40.682Z,1007.43
2017-03-31T04:15:21.131Z,1007.39
2017-03-31T04:16:01.575Z,1007.43
2017-03-31T04:16:42.036Z,1007.46
2017-03-31T04:17:22.496Z,1007.43
2017-03-31T04:18:02.976Z,1007.41
2017-03-31T04:18:43.427Z,1007.42
2017-03-31T04:19:23.924Z,1007.4
2017-03-31T04:21:42.177Z,1007.43
2017-03-31T04:22:22.587Z,1007.42
2017-03-31T04:23:03.018Z,1007.37
2017-03-31T04:23:43.475Z,1007.4
2017-03-31T04:24:23.948Z,1007.4
2017-03-31T04:25:04.365Z,1007.37
2017-03-31T04:25:44.807Z,1007.38
2017-03-31T04:26:25.228Z,1007.38
2017-03-31T04:27:05.690Z,1007.37
2017-03-31T04:27:46.121Z,1007.39
2017-03-31T04:28:26.585Z,1007.38
2017-03-31T04:29:07.028Z,1007.39
2017-03-31T04:31:19.737Z,1007.38
2017-03-31T04:32:00.220Z,1007.36
2017-03-31T04:32:40.704Z,1007.38
2017-03-31T04:33:21.125Z,1007.34
2017-03-31T04:34:01.536Z,1007.32
2017-03-31T04:34:41.990Z,1007.36
2017-03-31T04:35:22.512Z,1007.37
2017-03-31T04:37:20.122Z,1007.35
2017-03-31T04:38:00.556Z,1007.36
2017-03-31T04:38:41.089Z,1007.32
2017-03-31T04:39:21.545Z,1007.34
2017-03-31T04:40:02.003Z,1007.33
2017-03-31T04:40:42.510Z,1007.37
2017-03-31T04:41:22.967Z,1007.37
2017-03-31T04:42:03.350Z,1007.35
2017-03-31T04:42:43.836Z,1007.35
2017-03-31T04:43:24.280Z,1007.35
2017-03-31T04:44:04.723Z,1007.37
2017-03-31T04:44:45.195Z,1007.33
2017-03-31T04:45:25.720Z,1007.33
2017-03-31T04:46:06.176Z,1007.33
2017-03-31T04:46:46.630Z,1007.33
2017-03-31T04:47:27.066Z,1007.37
2017-03-31T04:48:07.504Z,1007.31
2017-03-31T04:48:47.936Z,1007.33
2017-03-31T04:49:28.403Z,1007.31
2017-03-31T04:50:08.851Z,1007.32
2017-03-31T04:50:49.359Z,1007.33
2017-03-31T04:51:29.789Z,1007.35
2017-03-31T04:52:10.253Z,1007.36
2017-03-31T04:52:50.685Z,1007.34
2017-03-31T04:53:31.140Z,1007.36
2017-03-31T04:54:11.586Z,1007.35
2017-03-31T04:54:52.084Z,1007.33
2017-03-31T04:55:32.522Z,1007.33
2017-03-31T04:56:12.988Z,1007.33
2017-03-31T04:56:53.472Z,1007.38
2017-03-31T04:57:33.902Z,1007.37
2017-03-31T04:58:14.367Z,1007.32
2017-03-31T04:58:54.825Z,1007.32
2017-03-31T04:59:35.293Z,1007.28
2017-03-31T05:00:15.804Z,1007.31
2017-03-31T05:00:56.244Z,1007.32
2017-03-31T05:02:53.856Z,1007.38
2017-03-31T05:03:34.292Z,1007.32
2017-03-31T05:04:14.770Z,1007.34
2017-03-31T05:04:55.236Z,1007.38
2017-03-31T05:05:35.730Z,1007.36
2017-03-31T05:06:16.238Z,1007.36
2017-03-31T05:06:56.658Z,1007.36
2017-03-31T05:07:37.096Z,1007.38
2017-03-31T05:08:17.561Z,1007.36
2017-03-31T05:08:58.087Z,1007.36
2017-03-31T05:09:38.564Z,1007.42
2017-03-31T05:10:19.032Z,1007.39
2017-03-31T05:10:59.536Z,1007.37
2017-03-31T05:11:40.028Z,1007.42
2017-03-31T05:12:20.473Z,1007.39
2017-03-31T05:13:00.940Z,1007.42
2017-03-31T05:13:41.399Z,1007.38
2017-03-31T05:15:54.129Z,1007.39
2017-03-31T05:16:34.591Z,1007.38
2017-03-31T05:18:47.268Z,1007.4
2017-03-31T05:19:27.717Z,1007.4
2017-03-31T05:20:08.259Z,1007.41
2017-03-31T05:20:48.687Z,1007.4
2017-03-31T05:21:29.150Z,1007.4
2017-03-31T05:22:09.610Z,1007.39
2017-03-31T05:22:50.093Z,1007.38
2017-03-31T05:23:30.558Z,1007.36
2017-03-31T05:24:11.005Z,1007.39
2017-03-31T05:26:28.822Z,1007.36
2017-03-31T05:27:09.227Z,1007.36
2017-03-31T05:27:49.683Z,1007.33
2017-03-31T05:28:30.133Z,1007.32
2017-03-31T05:29:10.593Z,1007.34
2017-03-31T05:31:03.144Z,1007.36
2017-03-31T05:31:43.609Z,1007.32
2017-03-31T05:32:24.037Z,1007.34
2017-03-31T05:33:04.513Z,1007.39
2017-03-31T05:33:45.014Z,1007.35
2017-03-31T05:34:25.453Z,1007.35
2017-03-31T05:35:05.927Z,1007.34
2017-03-31T05:36:58.539Z,1007.34
2017-03-31T05:37:38.940Z,1007.36
2017-03-31T05:38:19.415Z,1007.38
2017-03-31T05:38:59.857Z,1007.37
2017-03-31T05:41:27.813Z,1007.42
2017-03-31T05:42:08.219Z,1007.42
2017-03-31T05:42:48.698Z,1007.39
2017-03-31T05:43:29.183Z,1007.43
2017-03-31T05:44:09.607Z,1007.4
2017-03-31T05:44:50.136Z,1007.39
2017-03-31T05:45:30.589Z,1007.41
2017-03-31T05:46:11.037Z,1007.36
2017-03-31T05:46:51.485Z,1007.36
2017-03-31T05:47:31.979Z,1007.41
2017-03-31T05:48:12.372Z,1007.35
2017-03-31T05:48:52.828Z,1007.37
2017-03-31T05:49:33.278Z,1007.39
2017-03-31T05:50:13.729Z,1007.36
2017-03-31T05:50:54.225Z,1007.4
2017-03-31T05:51:34.643Z,1007.41
2017-03-31T05:52:15.137Z,1007.42
2017-03-31T05:52:55.609Z,1007.42
2017-03-31T05:53:36.059Z,1007.43
2017-03-31T05:54:16.554Z,1007.48
2017-03-31T05:54:57.030Z,1007.44
2017-03-31T05:55:37.474Z,1007.42
2017-03-31T05:56:17.939Z,1007.44
2017-03-31T05:56:58.406Z,1007.44
2017-03-31T05:57:38.853Z,1007.43
2017-03-31T05:59:31.386Z,1007.46
2017-03-31T06:00:11.874Z,1007.46
2017-03-31T06:00:52.344Z,1007.45
2017-03-31T06:01:32.825Z,1007.5
2017-03-31T06:02:13.360Z,1007.46
2017-03-31T06:02:53.804Z,1007.5
2017-03-31T06:04:51.425Z,1007.51
2017-03-31T06:05:31.905Z,1007.51
2017-03-31T06:06:12.375Z,1007.49
2017-03-31T06:06:52.820Z,1007.5
2017-03-31T06:08:45.378Z,1007.49
2017-03-31T06:09:25.882Z,1007.5
2017-03-31T06:10:06.365Z,1007.5
2017-03-31T06:10:46.913Z,1007.47
2017-03-31T06:11:27.429Z,1007.49
2017-03-31T06:12:07.871Z,1007.5
2017-03-31T06:12:48.324Z,1007.47
2017-03-31T06:13:28.821Z,1007.45
2017-03-31T06:14:09.246Z,1007.5
2017-03-31T06:14:49.793Z,1007.5
2017-03-31T06:15:30.277Z,1007.48
2017-03-31T06:16:10.763Z,1007.53
2017-03-31T06:16:51.226Z,1007.5
2017-03-31T06:17:31.665Z,1007.48
2017-03-31T06:18:12.109Z,1007.46
2017-03-31T06:18:52.559Z,1007.45
2017-03-31T06:19:33.031Z,1007.46
2017-03-31T06:20:13.477Z,1007.41
2017-03-31T06:20:53.916Z,1007.42
2017-03-31T06:21:34.437Z,1007.42
2017-03-31T06:23:52.227Z,1007.41
2017-03-31T06:24:32.752Z,1007.38
2017-03-31T06:25:13.193Z,1007.42
2017-03-31T06:27:10.805Z,1007.42
2017-03-31T06:27:51.286Z,1007.4
2017-03-31T06:28:31.707Z,1007.39
2017-03-31T06:29:12.904Z,1007.4
2017-03-31T06:29:53.347Z,1007.39
2017-03-31T06:30:33.778Z,1007.43
2017-03-31T06:31:14.284Z,1007.4
2017-03-31T06:33:07.183Z,1007.44
2017-03-31T06:33:47.728Z,1007.4
2017-03-31T06:34:28.151Z,1007.39
2017-03-31T06:35:08.567Z,1007.4
2017-03-31T06:35:49.003Z,1007.4
2017-03-31T06:36:29.428Z,1007.38
2017-03-31T06:38:47.263Z,1007.37
2017-03-31T06:39:27.770Z,1007.35
2017-03-31T06:40:08.262Z,1007.34
2017-03-31T06:40:48.772Z,1007.33
2017-03-31T06:41:29.208Z,1007.38
2017-03-31T06:42:09.681Z,1007.32
2017-03-31T06:42:50.158Z,1007.33
2017-03-31T06:44:48.359Z,1007.35
2017-03-31T06:45:28.822Z,1007.32
2017-03-31T06:46:09.300Z,1007.31
2017-03-31T06:46:49.858Z,1007.3
2017-03-31T06:47:30.294Z,1007.3
2017-03-31T06:48:10.703Z,1007.32
2017-03-31T06:48:51.896Z,1007.33
2017-03-31T06:49:32.347Z,1007.28
2017-03-31T06:50:12.796Z,1007.27
2017-03-31T06:50:53.239Z,1007.29
2017-03-31T06:51:33.756Z,1007.25
2017-03-31T06:52:14.266Z,1007.27
2017-03-31T06:52:54.908Z,1007.29
2017-03-31T06:53:35.399Z,1007.23
2017-03-31T06:54:16.090Z,1007.24
2017-03-31T06:54:56.759Z,1007.23
2017-03-31T06:55:37.450Z,1007.23
2017-03-31T06:56:18.102Z,1007.22
2017-03-31T06:56:58.718Z,1007.29
2017-03-31T06:57:39.426Z,1007.29
2017-03-31T06:58:20.115Z,1007.29
2017-03-31T06:59:00.569Z,1007.26
2017-03-31T06:59:41.193Z,1007.3
2017-03-31T07:00:21.620Z,1007.24
2017-03-31T07:01:03.239Z,1007.23
2017-03-31T07:01:43.732Z,1007.22
2017-03-31T07:02:24.226Z,1007.24
2017-03-31T07:03:04.694Z,1007.26
2017-03-31T07:03:45.147Z,1007.27
2017-03-31T07:04:25.771Z,1007.28
2017-03-31T07:06:18.402Z,1007.35
2017-03-31T07:06:58.831Z,1007.44
2017-03-31T07:07:39.305Z,1007.48
2017-03-31T07:08:19.772Z,1007.43
2017-03-31T07:09:00.299Z,1007.49
2017-03-31T07:09:40.963Z,1007.48
2017-03-31T07:10:21.621Z,1007.53
2017-03-31T07:11:02.335Z,1007.5
2017-03-31T07:11:43.091Z,1007.5
2017-03-31T07:12:23.784Z,1007.53
2017-03-31T07:13:04.581Z,1007.54
2017-03-31T07:13:46.581Z,1007.54
2017-03-31T07:14:27.292Z,1007.58
2017-03-31T07:15:07.979Z,1007.59
2017-03-31T07:15:48.992Z,1007.58
2017-03-31T07:16:29.601Z,1007.58
2017-03-31T07:17:10.258Z,1007.59
2017-03-31T07:17:51.146Z,1007.61
2017-03-31T07:18:31.873Z,1007.64
2017-03-31T07:19:12.602Z,1007.65
2017-03-31T07:19:53.226Z,1007.71
2017-03-31T07:20:33.893Z,1007.73
2017-03-31T07:21:14.549Z,1007.73
2017-03-31T07:21:55.272Z,1007.71
2017-03-31T07:22:35.977Z,1007.72
2017-03-31T07:23:16.582Z,1007.71
2017-03-31T07:23:57.124Z,1007.75
2017-03-31T07:24:37.705Z,1007.74
2017-03-31T07:25:18.359Z,1007.78
2017-03-31T07:25:59.073Z,1007.74
2017-03-31T07:26:39.844Z,1007.76
2017-03-31T07:27:20.585Z,1007.75
2017-03-31T07:28:01.107Z,1007.74
2017-03-31T07:30:19.072Z,1007.81
2017-03-31T07:30:59.522Z,1007.86
2017-03-31T07:31:39.958Z,1007.88
2017-03-31T07:32:20.406Z,1007.89
2017-03-31T07:33:00.862Z,1007.87
2017-03-31T07:33:44.192Z,1007.92
2017-03-31T07:34:24.584Z,1007.91
2017-03-31T07:35:05.058Z,1007.93
2017-03-31T07:35:45.496Z,1007.96
2017-03-31T07:36:25.986Z,1007.99
2017-03-31T07:37:06.474Z,1007.99
2017-03-31T07:37:46.866Z,1008.02
2017-03-31T07:38:27.316Z,1008.04
2017-03-31T07:39:07.808Z,1008.04
2017-03-31T07:39:48.345Z,1007.98
2017-03-31T07:40:28.811Z,1008.07
2017-03-31T07:41:09.295Z,1008.1
2017-03-31T07:41:49.722Z,1008.14
2017-03-31T07:42:30.198Z,1008.07
2017-03-31T07:43:10.721Z,1008.05
2017-03-31T07:43:51.200Z,1008.02
2017-03-31T07:44:31.624Z,1008.12
2017-03-31T07:45:12.148Z,1008.2
2017-03-31T07:45:52.569Z,1008.2
2017-03-31T07:46:33.061Z,1008.2
2017-03-31T07:47:13.520Z,1008.17
2017-03-31T07:47:53.948Z,1008.23
2017-03-31T07:48:34.408Z,1008.16
2017-03-31T07:50:32.139Z,1008.09
2017-03-31T07:51:12.557Z,1008.13
2017-03-31T07:51:53.030Z,1008.15
2017-03-31T07:52:33.588Z,1008.18
2017-03-31T07:53:14.097Z,1008.14
2017-03-31T07:53:55.094Z,1008.15
2017-03-31T07:56:12.963Z,1008.16
2017-03-31T07:56:53.473Z,1008.1
2017-03-31T07:57:34.150Z,1008.06
2017-03-31T07:58:15.219Z,1008.06
2017-03-31T07:58:55.724Z,1008.08
2017-03-31T07:59:36.190Z,1008.06
2017-03-31T08:00:16.712Z,1008.08
2017-03-31T08:00:57.209Z,1008.1
2017-03-31T08:01:37.777Z,1008.13
2017-03-31T08:02:19.129Z,1008.09
2017-03-31T08:02:59.662Z,1008.07
2017-03-31T08:03:40.116Z,1008.09
2017-03-31T08:04:20.585Z,1008.08
2017-03-31T08:05:01.169Z,1008.14
2017-03-31T08:05:41.626Z,1008.14
2017-03-31T08:06:22.101Z,1008.15
2017-03-31T08:07:02.623Z,1008.13
2017-03-31T08:07:43.105Z,1008.14
2017-03-31T08:08:23.583Z,1008.19
2017-03-31T08:09:05.111Z,1008.18
2017-03-31T08:09:45.680Z,1008.24
2017-03-31T08:10:26.239Z,1008.18
2017-03-31T08:11:06.884Z,1008.1
2017-03-31T08:11:47.537Z,1008.2
2017-03-31T08:12:28.228Z,1008.09
2017-03-31T08:13:08.912Z,1008.01
2017-03-31T08:13:50.082Z,1008.03
2017-03-31T08:14:31.780Z,1008.04
2017-03-31T08:15:12.805Z,1008.07
2017-03-31T08:15:53.658Z,1008
2017-03-31T08:16:34.800Z,1007.97
2017-03-31T08:17:15.450Z,1008.02
2017-03-31T08:17:56.094Z,1008.02
2017-03-31T08:18:36.745Z,1008
2017-03-31T08:19:17.435Z,1007.94
2017-03-31T08:19:58.005Z,1007.98
2017-03-31T08:20:38.602Z,1007.95
2017-03-31T08:21:19.656Z,1007.94
2017-03-31T08:22:00.071Z,1007.89
2017-03-31T08:22:40.520Z,1007.98
2017-03-31T08:23:21.098Z,1008.25
2017-03-31T08:25:49.185Z,1007.98
2017-03-31T08:26:29.619Z,1007.7
2017-03-31T08:27:10.116Z,1007.59
2017-03-31T08:27:50.763Z,1007.51
2017-03-31T08:28:31.189Z,1007.46
2017-03-31T08:29:11.827Z,1007.52
2017-03-31T08:29:52.273Z,1007.5
2017-03-31T08:30:32.777Z,1007.52
2017-03-31T08:31:13.283Z,1007.48
2017-03-31T08:31:53.960Z,1007.44
2017-03-31T08:32:34.460Z,1007.47
2017-03-31T08:33:14.969Z,1007.45
2017-03-31T08:33:55.595Z,1007.47
2017-03-31T08:34:35.970Z,1007.51
2017-03-31T08:36:48.749Z,1007.48
2017-03-31T08:37:29.282Z,1007.53
2017-03-31T08:38:10.079Z,1007.56
2017-03-31T08:38:50.705Z,1007.82
2017-03-31T08:42:20.697Z,1008.86
2017-03-31T08:43:01.438Z,1008.78
2017-03-31T08:43:41.990Z,1008.8
2017-03-31T08:44:22.580Z,1008.76
2017-03-31T08:45:03.023Z,1008.73
2017-03-31T08:45:43.530Z,1008.65
2017-03-31T08:46:24.027Z,1008.64
2017-03-31T08:48:21.622Z,1008.38
2017-03-31T08:49:02.201Z,1008.5
2017-03-31T08:49:42.634Z,1008.53
2017-03-31T08:50:23.102Z,1008.28
2017-03-31T08:51:03.583Z,1008.56
2017-03-31T08:51:44.096Z,1008.4
2017-03-31T08:53:56.845Z,1008.45
2017-03-31T08:54:37.336Z,1008.46
2017-03-31T08:55:17.814Z,1008.46
2017-03-31T08:55:58.318Z,1008.32
2017-03-31T08:56:38.876Z,1008.35
2017-03-31T08:57:19.363Z,1008.21
2017-03-31T08:57:59.890Z,1008.44
2017-03-31T08:58:40.317Z,1008.45
2017-03-31T08:59:20.813Z,1008.41
2017-03-31T09:00:01.328Z,1008.29
2017-03-31T09:00:41.753Z,1008.2
2017-03-31T09:01:22.224Z,1008.21
2017-03-31T09:02:02.756Z,1008.16
2017-03-31T09:02:43.196Z,1007.95
2017-03-31T09:03:23.671Z,1007.97
2017-03-31T09:05:21.362Z,1008.28
2017-03-31T09:06:01.814Z,1008.27
2017-03-31T09:06:42.280Z,1008.22
2017-03-31T09:09:10.387Z,1007.87
2017-03-31T09:09:50.926Z,1007.77
2017-03-31T09:10:31.448Z,1007.65
2017-03-31T09:11:12.110Z,1007.53
2017-03-31T09:11:52.575Z,1007.47
2017-03-31T09:12:33.032Z,1007.42
2017-03-31T09:13:13.609Z,1007.44
2017-03-31T09:15:41.623Z,1007.46
2017-03-31T09:16:22.736Z,1007.46
2017-03-31T09:17:03.355Z,1007.41
2017-03-31T09:17:43.837Z,1007.42
2017-03-31T09:18:24.506Z,1007.4
2017-03-31T09:19:05.018Z,1007.43
2017-03-31T09:19:45.604Z,1007.42
2017-03-31T09:21:58.518Z,1007.58
2017-03-31T09:22:39.437Z,1007.53
2017-03-31T09:23:19.998Z,1007.5
2017-03-31T09:24:00.470Z,1007.45
2017-03-31T09:24:41.096Z,1007.41
2017-03-31T09:25:21.657Z,1007.42
2017-03-31T09:27:19.437Z,1007.41
2017-03-31T09:28:00.180Z,1007.34
2017-03-31T09:28:40.834Z,1007.35
2017-03-31T09:29:21.529Z,1007.36
2017-03-31T09:30:02.348Z,1007.41
2017-03-31T09:30:42.959Z,1007.35
2017-03-31T09:31:23.496Z,1007.38
2017-03-31T09:33:36.531Z,1007.28
2017-03-31T09:34:17.140Z,1007.24
2017-03-31T09:34:57.655Z,1007.18
2017-03-31T09:35:38.279Z,1007.11
2017-03-31T09:36:18.950Z,1007.08
2017-03-31T09:37:00.221Z,1007.05
2017-03-31T09:37:40.875Z,1006.98
2017-03-31T09:38:21.425Z,1006.99
2017-03-31T09:39:02.135Z,1006.92
2017-03-31T09:39:42.724Z,1006.96
2017-03-31T09:40:23.729Z,1006.93
2017-03-31T09:41:04.376Z,1006.87
2017-03-31T09:41:44.837Z,1006.84
2017-03-31T09:42:25.352Z,1006.81
2017-03-31T09:43:05.791Z,1006.77
2017-03-31T09:43:46.258Z,1006.77
2017-03-31T09:46:04.160Z,1006.84
2017-03-31T09:46:44.588Z,1006.79
2017-03-31T09:49:02.421Z,1006.84
2017-03-31T09:51:30.408Z,1006.94
2017-03-31T09:52:10.945Z,1006.92
2017-03-31T09:52:51.405Z,1006.94
2017-03-31T09:53:31.844Z,1006.99
2017-03-31T09:55:44.654Z,1007.11
2017-03-31T09:56:25.440Z,1007.17
2017-03-31T09:57:05.906Z,1007.22
2017-03-31T09:57:46.351Z,1007.32
2017-03-31T09:58:26.795Z,1007.34
2017-03-31T09:59:07.245Z,1007.44
2017-03-31T09:59:47.722Z,1007.51